SBGL/GIG METAR and TAF weather

Enter ICAO airport designator
Station Type Date Time Source
SBGL METAR 2020/01/23 15:00 UTC NOAA

SBGL 231500Z 35003KT 9999 SCT016 OVC040 26/22 Q1008


Station Type Date Time Source
SBGL Decoded METAR 2020/01/23 15:00 UTC NOAA

Galeao, Brazil (SBGL) 22-49S 043-15W 42M
Jan 23, 2020 - 10:00 AM EST / 2020.01.23 1500 UTC
Wind: from the N (350 degrees) at 3 MPH (3 KT):0
Visibility: greater than 7 mile(s):0
Sky conditions: overcast
Temperature: 78 F (26 C)
Dew Point: 71 F (22 C)
Relative Humidity: 78%
Pressure (altimeter): 29.77 in. Hg (1008 hPa)
ob: SBGL 231500Z 35003KT 9999 SCT016 OVC040 26/22 Q1008
cycle: 15

Station Type Date Time Source
SBGL TAF 2020/01/23 18:03 UTC NOAA

TAF SBGL 231500Z 2318/2424 15010KT 8000 SCT017 TN22/2407Z TX26/2416Z
TEMPO 2320/2323 5000 RA BKN015
BECMG 2400/2402 06005KT 5000 RA BR SCT010 BKN020
BECMG 2410/2412 32005KT 8000 NSW SCT020
BECMG 2419/2421 28005KT
RMK PHD

Example: see airport list